createdAt,value
2023-07-25T00:02:09.908Z,99.90
2023-07-25T00:04:38.047Z,99.90
2023-07-25T00:07:06.521Z,99.90
2023-07-25T00:09:34.993Z,99.90
2023-07-25T00:12:04.528Z,99.90
2023-07-25T00:14:33.525Z,99.90
2023-07-25T00:17:01.462Z,99.90
2023-07-25T00:19:29.784Z,99.90
2023-07-25T00:21:57.779Z,99.90
2023-07-25T00:24:25.890Z,99.90
2023-07-25T00:26:53.930Z,99.90
2023-07-25T00:29:23.272Z,99.90
2023-07-25T00:31:51.217Z,99.90
2023-07-25T00:34:19.272Z,99.90
2023-07-25T00:36:47.554Z,99.90
2023-07-25T00:39:15.518Z,99.90
2023-07-25T00:41:43.443Z,99.90
2023-07-25T00:44:11.381Z,99.90
2023-07-25T00:46:42.462Z,99.90
2023-07-25T00:49:10.600Z,99.90
2023-07-25T00:51:39.650Z,99.90
2023-07-25T00:54:08.197Z,99.90
2023-07-25T00:56:36.510Z,99.90
2023-07-25T00:59:04.453Z,99.90
2023-07-25T01:01:32.769Z,99.90
2023-07-25T01:04:02.333Z,99.90
2023-07-25T01:06:31.769Z,99.90
2023-07-25T01:08:59.707Z,99.90
2023-07-25T01:11:28.798Z,99.90
2023-07-25T01:13:57.110Z,99.90
2023-07-25T01:16:27.601Z,99.90
2023-07-25T01:18:57.096Z,99.90
2023-07-25T01:21:26.570Z,99.90
2023-07-25T01:23:54.479Z,99.90
2023-07-25T01:26:25.530Z,99.90
2023-07-25T01:28:53.473Z,99.90
2023-07-25T01:31:21.471Z,99.90
2023-07-25T01:33:49.427Z,99.90
2023-07-25T01:36:17.416Z,99.90
2023-07-25T01:38:45.387Z,99.90
2023-07-25T01:41:13.347Z,99.90
2023-07-25T01:43:42.658Z,99.90
2023-07-25T01:46:10.845Z,99.90
2023-07-25T01:48:38.805Z,99.90
2023-07-25T01:51:06.773Z,99.90
2023-07-25T01:53:34.737Z,99.90
2023-07-25T01:56:02.744Z,99.90
2023-07-25T01:58:30.691Z,99.90
2023-07-25T02:01:00.913Z,99.90
2023-07-25T02:03:29.302Z,99.90
2023-07-25T02:05:57.232Z,99.90
2023-07-25T02:08:25.260Z,99.90
2023-07-25T02:10:53.316Z,99.90
2023-07-25T02:13:21.229Z,99.90
2023-07-25T02:15:49.204Z,99.90
2023-07-25T02:18:18.504Z,99.90
2023-07-25T02:20:46.677Z,99.90
2023-07-25T02:23:14.753Z,99.90
2023-07-25T02:25:42.695Z,99.90
2023-07-25T02:28:10.668Z,99.90
2023-07-25T02:30:38.658Z,99.90
2023-07-25T02:33:07.120Z,99.90
2023-07-25T02:35:36.567Z,99.90
2023-07-25T02:38:04.509Z,99.90
2023-07-25T02:40:32.479Z,99.90
2023-07-25T02:43:00.469Z,99.90
2023-07-25T02:45:28.555Z,99.90
2023-07-25T02:47:56.557Z,99.90
2023-07-25T02:50:36.335Z,99.90
2023-07-25T02:53:06.022Z,99.90
2023-07-25T02:55:34.297Z,99.90
2023-07-25T02:58:02.372Z,99.90
2023-07-25T03:00:30.498Z,99.90
2023-07-25T03:02:58.523Z,99.90
2023-07-25T03:05:29.625Z,99.90
2023-07-25T03:07:57.739Z,99.90
2023-07-25T03:10:27.141Z,99.90
2023-07-25T03:12:55.181Z,99.90
2023-07-25T03:15:23.169Z,99.90
2023-07-25T03:17:51.172Z,99.90
2023-07-25T03:20:22.151Z,99.90
2023-07-25T03:22:50.038Z,99.90
2023-07-25T03:25:18.186Z,99.90
2023-07-25T03:27:47.707Z,99.90
2023-07-25T03:30:15.745Z,99.90
2023-07-25T03:32:43.787Z,99.90
2023-07-25T03:35:11.799Z,99.90
2023-07-25T03:37:39.709Z,99.90
2023-07-25T03:40:08.933Z,99.90
2023-07-25T03:42:36.878Z,99.90
2023-07-25T03:45:07.072Z,99.90
2023-07-25T03:47:35.075Z,99.90
2023-07-25T03:50:03.517Z,99.90
2023-07-25T03:52:31.451Z,99.90
2023-07-25T03:54:59.395Z,99.90
2023-07-25T03:57:27.380Z,99.90
2023-07-25T03:59:55.424Z,99.90
2023-07-25T04:02:24.891Z,99.90
2023-07-25T04:04:53.068Z,99.90
2023-07-25T04:07:21.128Z,99.90
2023-07-25T04:09:49.098Z,99.90
2023-07-25T04:12:17.276Z,99.90
2023-07-25T04:14:45.200Z,99.90
2023-07-25T04:17:13.191Z,99.90
2023-07-25T04:19:42.652Z,99.90
2023-07-25T04:22:10.581Z,99.90
2023-07-25T04:24:38.608Z,99.90
2023-07-25T04:27:07.136Z,99.90
2023-07-25T04:29:35.034Z,99.90
2023-07-25T04:32:03.031Z,99.90
2023-07-25T04:34:31.021Z,99.90
2023-07-25T04:37:00.321Z,99.90
2023-07-25T04:39:28.314Z,99.90
2023-07-25T04:41:56.454Z,99.90
2023-07-25T04:44:24.472Z,99.90
2023-07-25T04:46:52.522Z,99.90
2023-07-25T04:49:20.508Z,99.90
2023-07-25T04:51:48.397Z,99.90
2023-07-25T04:54:17.767Z,99.90
2023-07-25T04:56:45.935Z,99.90
2023-07-25T04:59:13.985Z,99.90
2023-07-25T05:01:41.956Z,99.90
2023-07-25T05:04:10.242Z,99.90
2023-07-25T05:06:38.402Z,99.90
2023-07-25T05:09:06.645Z,99.90
2023-07-25T05:11:35.945Z,99.90
2023-07-25T05:14:04.056Z,99.90
2023-07-25T05:16:32.129Z,99.90
2023-07-25T05:19:00.080Z,99.90
2023-07-25T05:21:28.151Z,99.90
2023-07-25T05:23:56.154Z,99.90
2023-07-25T05:26:24.468Z,99.90
2023-07-25T05:28:53.890Z,99.90
2023-07-25T05:31:22.041Z,99.90
2023-07-25T05:33:50.034Z,99.90
2023-07-25T05:36:18.161Z,99.90
2023-07-25T05:38:46.137Z,99.90
2023-07-25T05:41:14.121Z,99.90
2023-07-25T05:43:42.232Z,99.90
2023-07-25T05:46:11.821Z,99.90
2023-07-25T05:48:39.918Z,99.90
2023-07-25T05:51:08.044Z,99.90
2023-07-25T05:53:35.976Z,99.90
2023-07-25T05:56:04.030Z,99.90
2023-07-25T05:58:32.398Z,99.90
2023-07-25T06:01:00.512Z,99.90
2023-07-25T06:03:29.898Z,99.90
2023-07-25T06:05:57.834Z,99.90
2023-07-25T06:08:25.813Z,99.90
2023-07-25T06:10:53.847Z,99.90
2023-07-25T06:13:22.442Z,99.90
2023-07-25T06:15:51.492Z,99.90
2023-07-25T06:18:19.478Z,99.90
2023-07-25T06:20:50.137Z,99.90
2023-07-25T06:23:18.074Z,99.90
2023-07-25T06:25:46.120Z,99.90
2023-07-25T06:28:20.301Z,99.90
2023-07-25T06:30:48.524Z,99.90
2023-07-25T06:33:17.180Z,99.90
2023-07-25T06:35:45.817Z,99.90
2023-07-25T06:38:15.622Z,99.90
2023-07-25T06:40:43.905Z,99.90
2023-07-25T06:43:11.950Z,99.90
2023-07-25T06:45:39.959Z,99.90
2023-07-25T06:48:08.304Z,99.90
2023-07-25T06:50:36.489Z,99.90
2023-07-25T06:53:07.758Z,99.90
2023-07-25T06:55:40.723Z,99.90
2023-07-25T06:58:08.749Z,99.90
2023-07-25T07:00:38.793Z,99.90
2023-07-25T07:03:07.340Z,99.90
2023-07-25T07:05:37.657Z,99.90
2023-07-25T07:08:45.484Z,99.90
2023-07-25T07:14:58.204Z,99.90
2023-07-25T07:17:35.761Z,99.90
2023-07-25T07:23:45.473Z,99.90
2023-07-25T07:26:47.561Z,99.90
2023-07-25T07:29:18.392Z,99.90
2023-07-25T07:31:49.096Z,99.90
2023-07-25T07:35:08.860Z,99.90
2023-07-25T07:38:05.720Z,99.90
2023-07-25T07:43:46.570Z,99.90
2023-07-25T07:46:18.036Z,99.90
2023-07-25T07:49:07.728Z,99.90
2023-07-25T07:54:36.047Z,99.90
2023-07-25T07:54:38.638Z,99.90
2023-07-25T08:00:07.196Z,99.90
2023-07-25T08:02:40.288Z,99.90
2023-07-25T08:05:09.590Z,99.90
2023-07-25T08:07:38.199Z,99.90
2023-07-25T08:10:07.617Z,99.90
2023-07-25T08:12:36.456Z,99.90
2023-07-25T08:15:13.267Z,99.90
2023-07-25T08:17:44.417Z,99.90
2023-07-25T08:20:17.413Z,99.90
2023-07-25T08:22:49.021Z,99.90
2023-07-25T08:25:17.816Z,99.90
2023-07-25T08:27:51.030Z,99.90
2023-07-25T08:30:27.391Z,99.90
2023-07-25T08:32:56.203Z,99.90
2023-07-25T08:35:27.090Z,99.90
2023-07-25T08:37:59.189Z,99.90
2023-07-25T08:40:27.532Z,99.90
2023-07-25T08:43:04.359Z,99.90
2023-07-25T08:45:36.201Z,99.90
2023-07-25T08:48:06.933Z,99.90
2023-07-25T08:50:37.154Z,99.90
2023-07-25T08:53:11.361Z,99.90
2023-07-25T08:55:40.283Z,99.90
2023-07-25T08:58:08.755Z,99.90
2023-07-25T09:00:38.656Z,99.90
2023-07-25T09:03:09.874Z,99.90
2023-07-25T09:05:38.364Z,99.90
2023-07-25T09:08:06.877Z,99.90
2023-07-25T09:10:34.938Z,99.90
2023-07-25T09:13:03.143Z,99.90
2023-07-25T09:15:31.154Z,99.90
2023-07-25T09:18:00.524Z,99.90
2023-07-25T09:20:29.018Z,99.90
2023-07-25T09:22:58.984Z,99.90
2023-07-25T09:25:28.279Z,99.90
2023-07-25T09:27:56.699Z,99.90
2023-07-25T09:30:28.949Z,99.90
2023-07-25T09:32:57.035Z,99.90
2023-07-25T09:35:27.256Z,99.90
2023-07-25T09:37:56.550Z,99.90
2023-07-25T09:40:24.786Z,99.90
2023-07-25T09:42:52.972Z,99.90
2023-07-25T09:45:21.602Z,99.90
2023-07-25T09:47:54.287Z,99.90
2023-07-25T09:50:28.450Z,99.90
2023-07-25T09:52:56.382Z,99.90
2023-07-25T09:55:24.437Z,99.90
2023-07-25T09:57:53.075Z,99.90
2023-07-25T10:00:21.072Z,99.90
2023-07-25T10:02:50.725Z,99.90
2023-07-25T10:05:18.859Z,99.90
2023-07-25T10:07:50.450Z,99.90
2023-07-25T10:10:19.964Z,99.90
2023-07-25T10:12:48.286Z,99.90
2023-07-25T10:15:16.862Z,99.90
2023-07-25T10:17:45.340Z,99.90
2023-07-25T10:20:22.763Z,99.90
2023-07-25T10:22:52.410Z,98.00
2023-07-25T10:25:21.736Z,95.70
2023-07-25T10:27:54.612Z,94.80
2023-07-25T10:30:24.848Z,96.40
2023-07-25T10:32:55.370Z,96.40
2023-07-25T10:35:42.016Z,95.60
2023-07-25T10:38:13.020Z,96.70
2023-07-25T10:40:55.268Z,97.10
2023-07-25T10:43:23.815Z,98.50
2023-07-25T10:45:54.065Z,98.30
2023-07-25T10:48:37.750Z,98.90
2023-07-25T10:51:08.370Z,99.50
2023-07-25T10:53:37.825Z,98.90
2023-07-25T10:56:16.457Z,98.60
2023-07-25T10:59:09.415Z,98.40
2023-07-25T11:01:44.711Z,99.10
2023-07-25T11:04:39.837Z,99.20
2023-07-25T11:07:12.093Z,99.90
2023-07-25T11:09:45.821Z,99.90
2023-07-25T11:12:14.261Z,99.90
2023-07-25T11:14:43.738Z,99.90
2023-07-25T11:17:13.053Z,99.90
2023-07-25T11:19:41.393Z,99.90
2023-07-25T11:22:13.775Z,99.90
2023-07-25T11:24:49.159Z,99.90
2023-07-25T11:27:17.442Z,99.90
2023-07-25T11:29:45.415Z,99.90
2023-07-25T11:32:13.610Z,99.90
2023-07-25T11:34:41.757Z,99.90
2023-07-25T11:37:13.470Z,99.90
2023-07-25T11:39:41.591Z,99.90
2023-07-25T11:42:11.097Z,99.90
2023-07-25T11:44:39.502Z,99.90
2023-07-25T11:47:08.186Z,99.90
2023-07-25T11:49:51.462Z,99.90
2023-07-25T11:52:28.496Z,99.90
2023-07-25T11:55:00.822Z,99.90
2023-07-25T11:57:32.576Z,99.90
2023-07-25T12:00:07.618Z,99.90
2023-07-25T12:02:40.328Z,99.90
2023-07-25T12:05:30.021Z,99.90
2023-07-25T12:08:03.762Z,99.90
2023-07-25T12:10:38.781Z,99.90
2023-07-25T12:13:10.214Z,99.90
2023-07-25T12:15:45.392Z,99.90
2023-07-25T12:18:25.972Z,99.90
2023-07-25T12:20:58.626Z,99.90
2023-07-25T12:23:34.203Z,99.90
2023-07-25T12:26:05.271Z,99.90
2023-07-25T12:28:42.363Z,99.90
2023-07-25T12:31:10.990Z,99.90
2023-07-25T12:33:39.838Z,99.90
2023-07-25T12:36:08.377Z,99.90
2023-07-25T12:38:39.976Z,99.90
2023-07-25T12:41:08.852Z,99.90
2023-07-25T12:43:37.007Z,99.90
2023-07-25T12:46:06.433Z,99.90
2023-07-25T12:48:34.511Z,99.90
2023-07-25T12:51:02.632Z,99.90
2023-07-25T12:53:30.638Z,99.90
2023-07-25T12:55:58.668Z,99.90
2023-07-25T12:58:28.718Z,99.90
2023-07-25T13:00:56.926Z,99.90
2023-07-25T13:03:27.471Z,99.90
2023-07-25T13:05:56.169Z,99.90
2023-07-25T13:08:24.256Z,99.90
2023-07-25T13:10:53.942Z,99.90
2023-07-25T13:13:22.045Z,99.90
2023-07-25T13:15:50.473Z,99.90
2023-07-25T13:18:18.480Z,99.90
2023-07-25T13:20:49.145Z,99.90
2023-07-25T13:23:17.134Z,99.90
2023-07-25T13:25:46.779Z,99.90
2023-07-25T13:28:16.889Z,99.90
2023-07-25T13:30:45.041Z,99.90
2023-07-25T13:33:13.086Z,99.90
2023-07-25T13:35:41.283Z,99.90
2023-07-25T13:38:10.549Z,99.90
2023-07-25T13:40:38.534Z,99.90
2023-07-25T13:43:06.511Z,99.90
2023-07-25T13:45:46.047Z,99.90
2023-07-25T13:48:19.493Z,99.90
2023-07-25T13:50:53.640Z,99.90
2023-07-25T13:53:24.870Z,99.90
2023-07-25T13:55:53.259Z,99.90
2023-07-25T13:58:24.621Z,99.90
2023-07-25T14:00:52.912Z,99.90
2023-07-25T14:03:20.982Z,99.90
2023-07-25T14:05:49.115Z,99.90
2023-07-25T14:08:17.176Z,99.90
2023-07-25T14:10:46.704Z,99.90
2023-07-25T14:13:14.752Z,99.90
2023-07-25T14:15:42.831Z,99.90
2023-07-25T14:18:11.082Z,99.90
2023-07-25T14:20:39.560Z,99.90
2023-07-25T14:23:07.686Z,99.90
2023-07-25T14:25:35.634Z,99.90
2023-07-25T14:28:05.325Z,99.90
2023-07-25T14:30:35.111Z,99.90
2023-07-25T14:33:03.344Z,99.90
2023-07-25T14:35:31.305Z,99.90
2023-07-25T14:38:00.981Z,99.90
2023-07-25T14:40:30.070Z,99.90
2023-07-25T14:42:58.048Z,99.90
2023-07-25T14:45:27.389Z,99.90
2023-07-25T14:47:56.212Z,99.90
2023-07-25T14:50:25.044Z,99.90
2023-07-25T14:52:55.278Z,99.90
2023-07-25T14:55:23.234Z,99.90
2023-07-25T14:57:51.655Z,99.90
2023-07-25T15:00:20.070Z,99.90
2023-07-25T15:02:49.641Z,99.90
2023-07-25T15:05:17.880Z,99.90
2023-07-25T15:07:45.890Z,99.90
2023-07-25T15:10:13.898Z,99.90
2023-07-25T15:12:41.997Z,99.90
2023-07-25T15:15:10.745Z,99.90
2023-07-25T15:17:38.955Z,99.90
2023-07-25T15:20:10.952Z,99.90
2023-07-25T15:22:39.185Z,99.90
2023-07-25T15:25:08.127Z,99.90
2023-07-25T15:27:36.270Z,99.90
2023-07-25T15:30:05.205Z,99.90
2023-07-25T15:32:33.354Z,99.90
2023-07-25T15:35:01.306Z,99.90
2023-07-25T15:37:30.596Z,99.90
2023-07-25T15:39:59.167Z,99.90
2023-07-25T15:42:27.155Z,99.90
2023-07-25T15:44:55.080Z,99.90
2023-07-25T15:47:23.092Z,99.90
2023-07-25T15:49:51.212Z,99.90
2023-07-25T15:52:19.308Z,99.90
2023-07-25T15:54:48.704Z,99.90
2023-07-25T15:57:16.621Z,99.90
2023-07-25T15:59:45.521Z,99.90
2023-07-25T16:02:13.748Z,99.90
2023-07-25T16:04:41.713Z,99.90
2023-07-25T16:07:09.819Z,99.90
2023-07-25T16:09:38.835Z,99.90
2023-07-25T16:12:10.138Z,99.90
2023-07-25T16:14:38.017Z,99.90
2023-07-25T16:17:06.000Z,99.90
2023-07-25T16:19:33.964Z,99.90
2023-07-25T16:22:01.925Z,99.90
2023-07-25T16:24:30.200Z,99.90
2023-07-25T16:26:58.258Z,99.90
2023-07-25T16:29:27.663Z,99.90
2023-07-25T16:31:55.870Z,99.90
2023-07-25T16:34:24.082Z,99.90
2023-07-25T16:36:52.031Z,99.90
2023-07-25T16:39:20.005Z,99.90
2023-07-25T16:41:48.178Z,99.90
2023-07-25T16:44:16.109Z,99.90
2023-07-25T16:46:45.510Z,99.90
2023-07-25T16:49:13.851Z,99.90
2023-07-25T16:51:42.198Z,99.90
2023-07-25T16:54:10.163Z,99.90
2023-07-25T16:56:38.158Z,99.90
2023-07-25T16:59:08.073Z,99.90
2023-07-25T17:01:36.229Z,99.90
2023-07-25T17:04:10.253Z,99.90
2023-07-25T17:06:43.698Z,99.90
2023-07-25T17:09:12.477Z,99.90
2023-07-25T17:11:43.871Z,99.90
2023-07-25T17:14:11.981Z,99.90
2023-07-25T17:16:40.014Z,99.90
2023-07-25T17:19:09.405Z,99.90
2023-07-25T17:21:40.800Z,99.90
2023-07-25T17:24:09.666Z,99.90
2023-07-25T17:26:38.905Z,99.90
2023-07-25T17:29:07.156Z,99.90
2023-07-25T17:31:36.408Z,99.90
2023-07-25T17:37:08.031Z,99.90
2023-07-25T17:39:36.351Z,99.90
2023-07-25T17:42:04.963Z,99.90
2023-07-25T17:44:33.181Z,99.90
2023-07-25T17:47:01.402Z,99.90
2023-07-25T17:49:32.646Z,99.90
2023-07-25T17:52:06.411Z,99.90
2023-07-25T17:54:56.630Z,99.90
2023-07-25T17:57:35.208Z,99.90
2023-07-25T18:00:08.889Z,99.90
2023-07-25T18:02:39.101Z,99.90
2023-07-25T18:05:11.371Z,99.90
2023-07-25T18:07:39.875Z,99.90
2023-07-25T18:10:10.462Z,99.90
2023-07-25T18:12:38.765Z,99.90
2023-07-25T18:15:08.168Z,99.90
2023-07-25T18:17:39.445Z,99.90
2023-07-25T18:20:09.948Z,99.90
2023-07-25T18:22:39.105Z,99.90
2023-07-25T18:25:09.845Z,99.90
2023-07-25T18:27:40.707Z,99.90
2023-07-25T18:30:10.037Z,99.90
2023-07-25T18:32:40.480Z,99.90
2023-07-25T18:35:09.700Z,99.90
2023-07-25T18:37:38.812Z,99.90
2023-07-25T18:40:13.447Z,99.90
2023-07-25T18:43:02.115Z,99.90
2023-07-25T18:45:31.414Z,99.90
2023-07-25T18:48:03.103Z,99.90
2023-07-25T18:50:31.569Z,99.90
2023-07-25T18:52:59.706Z,99.90
2023-07-25T18:55:34.047Z,99.90
2023-07-25T18:58:23.328Z,99.90
2023-07-25T19:00:52.729Z,99.90
2023-07-25T19:03:21.900Z,99.90
2023-07-25T19:06:12.626Z,99.90
2023-07-25T19:08:41.486Z,99.90
2023-07-25T19:11:13.894Z,99.90
2023-07-25T19:13:45.434Z,99.90
2023-07-25T19:16:17.299Z,99.90
2023-07-25T19:18:45.956Z,99.90
2023-07-25T19:21:14.646Z,99.90
2023-07-25T19:23:44.691Z,99.90
2023-07-25T19:26:35.611Z,99.90
2023-07-25T19:29:04.771Z,99.90
2023-07-25T19:31:36.511Z,99.90
2023-07-25T19:34:05.817Z,99.90
2023-07-25T19:36:38.266Z,99.90
2023-07-25T19:39:25.371Z,99.90
2023-07-25T19:42:33.060Z,99.90
2023-07-25T19:45:03.594Z,99.90
2023-07-25T19:47:46.712Z,99.90
2023-07-25T19:50:18.655Z,99.90
2023-07-25T19:52:49.881Z,99.90
2023-07-25T19:55:54.530Z,99.90
2023-07-25T19:58:52.722Z,99.90
2023-07-25T20:01:34.907Z,99.90
2023-07-25T20:04:06.583Z,99.90
2023-07-25T20:06:39.565Z,99.90
2023-07-25T20:09:14.386Z,99.90
2023-07-25T20:11:44.175Z,99.90
2023-07-25T20:14:14.939Z,99.90
2023-07-25T20:16:51.971Z,99.90
2023-07-25T20:19:24.376Z,99.90
2023-07-25T20:21:54.864Z,99.90
2023-07-25T20:24:35.448Z,99.90
2023-07-25T20:27:07.283Z,99.90
2023-07-25T20:29:40.129Z,99.90
2023-07-25T20:32:10.375Z,99.90
2023-07-25T20:34:41.437Z,99.90
2023-07-25T20:37:13.150Z,99.90
2023-07-25T20:39:42.355Z,99.90
2023-07-25T20:42:11.456Z,99.90
2023-07-25T20:44:41.610Z,99.90
2023-07-25T20:47:10.429Z,99.90
2023-07-25T20:49:39.157Z,99.90
2023-07-25T20:52:12.056Z,99.90
2023-07-25T20:54:40.933Z,99.90
2023-07-25T20:57:10.694Z,99.90
2023-07-25T20:59:43.342Z,99.90
2023-07-25T21:02:17.051Z,99.90
2023-07-25T21:04:45.838Z,99.90
2023-07-25T21:07:15.831Z,99.90
2023-07-25T21:09:44.880Z,99.90
2023-07-25T21:12:13.695Z,99.90
2023-07-25T21:14:44.342Z,99.90
2023-07-25T21:17:12.946Z,99.90
2023-07-25T21:19:41.526Z,99.90
2023-07-25T21:22:09.917Z,99.90
2023-07-25T21:24:38.381Z,99.90
2023-07-25T21:27:07.655Z,99.90
2023-07-25T21:29:36.738Z,99.90
2023-07-25T21:32:07.471Z,99.90
2023-07-25T21:34:35.813Z,99.90
2023-07-25T21:37:04.200Z,99.90
2023-07-25T21:39:32.792Z,99.90
2023-07-25T21:42:01.416Z,99.90
2023-07-25T21:44:30.443Z,99.90
2023-07-25T21:46:58.944Z,99.90
2023-07-25T21:49:32.333Z,99.90
2023-07-25T21:52:00.564Z,99.90
2023-07-25T21:54:28.811Z,99.90
2023-07-25T21:56:59.019Z,99.90
2023-07-25T21:59:28.051Z,99.90
2023-07-25T22:01:56.952Z,99.90
2023-07-25T22:04:28.328Z,99.90
2023-07-25T22:07:01.627Z,99.90
2023-07-25T22:09:30.604Z,99.90
2023-07-25T22:11:59.088Z,99.90
2023-07-25T22:14:28.499Z,99.90
2023-07-25T22:16:57.451Z,99.90
2023-07-25T22:19:26.390Z,99.90
2023-07-25T22:21:54.852Z,99.90
2023-07-25T22:24:26.081Z,99.90
2023-07-25T22:26:55.271Z,99.90
2023-07-25T22:29:23.664Z,99.90
2023-07-25T22:31:52.184Z,99.90
2023-07-25T22:34:21.997Z,99.90
2023-07-25T22:36:50.402Z,99.90
2023-07-25T22:39:19.742Z,99.90
2023-07-25T22:41:50.021Z,99.90
2023-07-25T22:44:18.351Z,99.90
2023-07-25T22:46:46.543Z,99.90
2023-07-25T22:49:18.231Z,99.90
2023-07-25T22:51:46.702Z,99.90
2023-07-25T22:54:14.905Z,99.90
2023-07-25T22:56:43.456Z,99.90
2023-07-25T22:59:16.095Z,99.90
2023-07-25T23:01:44.544Z,99.90
2023-07-25T23:04:13.625Z,99.90
2023-07-25T23:06:42.259Z,99.90
2023-07-25T23:09:10.999Z,99.90
2023-07-25T23:11:39.439Z,99.90
2023-07-25T23:14:07.692Z,99.90
2023-07-25T23:16:37.556Z,99.90
2023-07-25T23:19:05.725Z,99.90
2023-07-25T23:21:33.953Z,99.90
2023-07-25T23:24:02.540Z,99.90
2023-07-25T23:26:31.197Z,99.90
2023-07-25T23:29:00.004Z,99.90
2023-07-25T23:31:28.735Z,99.90
2023-07-25T23:33:58.845Z,99.90
2023-07-25T23:36:27.454Z,99.90
2023-07-25T23:38:55.873Z,99.90
2023-07-25T23:41:24.393Z,99.90
2023-07-25T23:43:53.336Z,99.90
2023-07-25T23:46:22.064Z,99.90
2023-07-25T23:48:50.941Z,99.90
2023-07-25T23:51:20.859Z,99.90
2023-07-25T23:53:48.804Z,99.90
2023-07-25T23:56:16.922Z,99.90
2023-07-25T23:58:44.869Z,99.90
